Time;durP1;ratioP1;P1;durP2;ratioP2;P2;SDS_P1;SDS_P2;PMS_P1;PMS_P2;Temp;Humidity;BMP_temperature;BMP_pressure;BME280_temperature;BME280_humidity;BME280_pressure;Samples;Min_cycle;Max_cycle;Signal;HPM_P1;HPM_P2
2023/12/14 00:00:25;;;;;;;67.60;27.40;;;8.70;99.90;;;;;;4971843;28;20106;-63
2023/12/14 00:02:51;;;;;;;65.85;26.25;;;8.70;99.90;;;;;;4966551;28;20564;-62
2023/12/14 00:05:16;;;;;;;83.80;29.13;;;8.60;99.90;;;;;;4968546;28;20019;-63
2023/12/14 00:07:42;;;;;;;73.70;30.08;;;8.70;99.90;;;;;;4969535;28;20035;-63
2023/12/14 00:10:07;;;;;;;85.00;31.92;;;8.70;99.90;;;;;;4970886;28;20086;-60
2023/12/14 00:12:33;;;;;;;91.22;31.92;;;8.60;99.90;;;;;;4969157;28;20428;-61
2023/12/14 00:14:59;;;;;;;87.70;29.90;;;8.60;99.90;;;;;;4972529;28;20058;-63
2023/12/14 00:17:24;;;;;;;90.50;31.50;;;8.60;99.90;;;;;;4967255;28;20539;-63
2023/12/14 00:19:50;;;;;;;86.30;31.45;;;8.60;99.90;;;;;;4971189;28;20038;-62
2023/12/14 00:22:15;;;;;;;86.07;32.80;;;8.70;99.90;;;;;;4969321;28;20019;-61
2023/12/14 00:24:41;;;;;;;84.68;31.48;;;8.70;99.90;;;;;;4967885;28;20035;-62
2023/12/14 00:27:07;;;;;;;96.72;33.10;;;8.60;99.90;;;;;;4969372;28;20053;-63
2023/12/14 00:29:32;;;;;;;100.50;33.45;;;8.70;99.90;;;;;;4964624;28;20166;-62
2023/12/14 00:31:58;;;;;;;99.70;31.15;;;8.60;99.90;;;;;;4969773;28;20058;-64
2023/12/14 00:34:23;;;;;;;120.35;35.08;;;8.60;99.90;;;;;;4967441;28;20451;-63
2023/12/14 00:36:49;;;;;;;119.90;35.38;;;8.60;99.90;;;;;;4966535;28;20422;-63
2023/12/14 00:39:14;;;;;;;117.55;37.00;;;8.60;99.90;;;;;;4964577;28;20038;-62
2023/12/14 00:41:40;;;;;;;135.85;38.00;;;8.60;99.90;;;;;;4965335;28;20069;-63
2023/12/14 00:44:06;;;;;;;119.68;36.70;;;8.60;99.90;;;;;;4963601;28;20054;-63
2023/12/14 00:46:31;;;;;;;120.40;35.78;;;8.60;99.90;;;;;;4963394;28;20053;-62
2023/12/14 00:48:57;;;;;;;128.77;35.53;;;8.60;99.90;;;;;;4965143;28;20476;-60
2023/12/14 00:51:22;;;;;;;140.05;38.60;;;8.60;99.90;;;;;;4964802;28;20033;-63
2023/12/14 00:53:48;;;;;;;139.75;36.60;;;8.60;99.90;;;;;;4962872;28;20043;-60
2023/12/14 00:56:13;;;;;;;143.50;38.95;;;8.60;99.90;;;;;;4961882;28;20019;-62
2023/12/14 00:58:39;;;;;;;126.13;37.40;;;8.60;99.90;;;;;;4963457;28;20428;-63
2023/12/14 01:01:04;;;;;;;133.57;38.58;;;8.60;99.90;;;;;;4963449;28;20019;-61
2023/12/14 01:03:30;;;;;;;144.40;39.25;;;8.60;99.90;;;;;;4969230;28;20023;-63
2023/12/14 01:05:56;;;;;;;138.80;38.33;;;8.60;99.90;;;;;;4971894;28;20033;-63
2023/12/14 01:08:21;;;;;;;137.00;36.88;;;8.60;99.90;;;;;;4966106;28;20027;-64
2023/12/14 01:10:47;;;;;;;150.07;40.17;;;8.50;99.90;;;;;;4968608;28;20033;-63
2023/12/14 01:13:12;;;;;;;162.40;42.10;;;8.60;99.90;;;;;;4970804;28;20532;-63
2023/12/14 01:15:38;;;;;;;144.23;40.35;;;8.60;99.90;;;;;;4970804;28;20559;-64
2023/12/14 01:18:03;;;;;;;147.75;41.25;;;8.60;99.90;;;;;;4972410;28;20034;-63
2023/12/14 01:20:29;;;;;;;139.48;39.88;;;8.50;99.90;;;;;;4970998;28;20031;-64
2023/12/14 01:22:54;;;;;;;151.82;41.75;;;8.60;99.90;;;;;;4969718;28;20029;-63
2023/12/14 01:25:20;;;;;;;137.75;40.28;;;8.60;99.90;;;;;;4969937;28;20035;-65
2023/12/14 01:27:45;;;;;;;154.50;41.08;;;8.60;99.90;;;;;;4965783;28;20062;-63
2023/12/14 01:30:11;;;;;;;150.45;40.42;;;8.60;99.90;;;;;;4969040;28;20129;-62
2023/12/14 01:32:37;;;;;;;145.32;39.83;;;8.60;99.90;;;;;;4967694;28;20019;-63
2023/12/14 01:35:03;;;;;;;155.82;42.92;;;8.60;99.90;;;;;;4972436;28;20026;-60
2023/12/14 01:37:28;;;;;;;148.30;41.90;;;8.60;99.90;;;;;;4971131;28;20125;-61
2023/12/14 01:39:54;;;;;;;150.65;42.08;;;8.60;99.90;;;;;;4970837;28;20031;-63
2023/12/14 01:42:19;;;;;;;163.32;44.28;;;8.60;99.90;;;;;;4969522;28;20027;-64
2023/12/14 01:44:45;;;;;;;169.43;44.10;;;8.60;99.90;;;;;;4971612;28;20045;-62
2023/12/14 01:47:10;;;;;;;168.93;43.65;;;8.60;99.90;;;;;;4968763;28;20039;-63
2023/12/14 01:49:36;;;;;;;170.32;44.83;;;8.60;99.90;;;;;;4970654;28;20113;-62
2023/12/14 01:52:01;;;;;;;160.05;45.85;;;8.60;99.90;;;;;;4970522;28;20053;-64
2023/12/14 01:54:27;;;;;;;164.38;45.38;;;8.60;99.90;;;;;;4966363;28;20425;-63
2023/12/14 01:56:54;;;;;;;168.10;45.97;;;8.60;99.90;;;;;;4971524;28;20045;-62
2023/12/14 01:59:19;;;;;;;185.85;46.25;;;8.60;99.90;;;;;;4968988;28;20030;-64
2023/12/14 02:01:51;;;;;;;162.88;44.90;;;8.60;99.90;;;;;;4969826;28;20413;-64
2023/12/14 02:04:17;;;;;;;164.18;45.65;;;8.60;99.90;;;;;;4970816;28;20062;-62
2023/12/14 02:06:43;;;;;;;175.88;46.67;;;8.60;99.90;;;;;;4971160;28;20050;-63
2023/12/14 02:09:09;;;;;;;167.88;45.78;;;8.70;99.90;;;;;;4968595;28;20050;-63
2023/12/14 02:11:35;;;;;;;149.00;43.53;;;8.60;99.90;;;;;;4968969;28;20034;-64
2023/12/14 02:14:09;;;;;;;178.35;47.53;;;8.60;99.90;;;;;;4966899;28;20034;-62
2023/12/14 02:16:38;;;;;;;164.23;44.17;;;8.60;99.90;;;;;;4969217;28;20058;-61
2023/12/14 02:19:04;;;;;;;161.68;44.72;;;8.60;99.90;;;;;;4968179;28;20085;-64
2023/12/14 02:21:29;;;;;;;152.52;43.33;;;8.60;99.90;;;;;;4968248;28;20027;-59
2023/12/14 02:23:55;;;;;;;151.35;44.88;;;8.70;99.90;;;;;;4966189;28;20034;-60
2023/12/14 02:26:20;;;;;;;143.77;42.97;;;8.70;99.90;;;;;;4969043;28;20034;-60
2023/12/14 02:28:46;;;;;;;148.00;43.03;;;8.70;99.90;;;;;;4970137;28;20037;-65
2023/12/14 02:31:11;;;;;;;146.48;43.20;;;8.70;99.90;;;;;;4968863;28;20042;-62
2023/12/14 02:33:37;;;;;;;147.55;43.38;;;8.70;99.90;;;;;;4965724;28;20035;-63
2023/12/14 02:36:03;;;;;;;154.93;44.80;;;8.70;99.90;;;;;;4963971;28;20031;-63
2023/12/14 02:38:29;;;;;;;161.15;46.80;;;8.70;99.90;;;;;;4965860;28;20031;-61
2023/12/14 02:40:54;;;;;;;171.40;46.72;;;8.70;99.90;;;;;;4964222;28;20030;-63
2023/12/14 02:43:20;;;;;;;147.13;45.03;;;8.70;99.90;;;;;;4966797;28;20444;-62
2023/12/14 02:45:46;;;;;;;156.18;46.15;;;8.70;99.90;;;;;;4971774;28;20023;-63
2023/12/14 02:48:12;;;;;;;165.45;45.88;;;8.70;99.90;;;;;;4970340;28;20117;-63
2023/12/14 02:50:37;;;;;;;156.15;47.55;;;8.70;99.90;;;;;;4969943;28;20026;-63
2023/12/14 02:53:03;;;;;;;164.82;49.45;;;8.80;99.90;;;;;;4967366;28;20042;-61
2023/12/14 02:55:29;;;;;;;150.25;45.03;;;8.70;99.90;;;;;;4971279;28;20019;-61
2023/12/14 02:57:54;;;;;;;135.68;42.42;;;8.70;99.90;;;;;;4970185;28;20027;-62
2023/12/14 03:00:20;;;;;;;141.60;42.22;;;8.70;99.90;;;;;;4967233;28;20027;-62
2023/12/14 03:02:45;;;;;;;124.68;37.92;;;8.70;99.90;;;;;;4970228;28;20102;-61
2023/12/14 03:05:11;;;;;;;114.15;36.08;;;8.70;99.90;;;;;;4969528;28;20042;-61
2023/12/14 03:07:36;;;;;;;124.43;39.03;;;8.70;99.90;;;;;;4968833;28;20038;-63
2023/12/14 03:10:03;;;;;;;126.40;40.05;;;8.60;99.90;;;;;;4967623;28;20035;-65
2023/12/14 03:12:28;;;;;;;117.65;38.22;;;8.60;99.90;;;;;;4966386;28;20054;-62
2023/12/14 03:14:54;;;;;;;129.32;38.15;;;8.60;99.90;;;;;;4970083;28;20061;-63
2023/12/14 03:17:19;;;;;;;121.32;38.80;;;8.60;99.90;;;;;;4968278;28;20022;-63
2023/12/14 03:19:45;;;;;;;121.22;37.75;;;8.70;99.90;;;;;;4969977;28;20027;-64
2023/12/14 03:22:10;;;;;;;121.93;39.83;;;8.60;99.90;;;;;;4970658;28;20532;-62
2023/12/14 03:24:37;;;;;;;120.93;38.35;;;8.60;99.90;;;;;;4967800;28;20093;-64
2023/12/14 03:27:04;;;;;;;126.18;39.13;;;8.60;99.90;;;;;;4970730;28;20034;-64
2023/12/14 03:29:29;;;;;;;121.43;39.60;;;8.50;99.90;;;;;;4964880;28;20043;-64
2023/12/14 03:31:56;;;;;;;122.30;38.53;;;8.50;99.90;;;;;;4968177;28;20147;-64
2023/12/14 03:34:21;;;;;;;110.55;36.22;;;8.50;99.90;;;;;;4972433;28;20026;-65
2023/12/14 03:36:47;;;;;;;118.70;35.40;;;8.40;99.90;;;;;;4972582;28;20532;-64
2023/12/14 03:39:13;;;;;;;114.13;34.50;;;8.40;99.90;;;;;;4975460;28;20113;-62
2023/12/14 03:41:38;;;;;;;108.40;35.97;;;8.30;99.90;;;;;;4972584;28;20042;-63
2023/12/14 03:44:04;;;;;;;100.82;35.28;;;8.20;99.90;;;;;;4973116;28;20023;-62
2023/12/14 03:46:30;;;;;;;107.07;33.70;;;8.20;99.90;;;;;;4973462;28;20062;-63
2023/12/14 03:48:55;;;;;;;98.90;32.45;;;8.20;99.90;;;;;;4971724;28;20489;-63
2023/12/14 03:51:21;;;;;;;119.22;36.40;;;8.20;99.90;;;;;;4971009;28;20034;-64
2023/12/14 03:53:47;;;;;;;130.88;36.40;;;8.20;99.90;;;;;;4972435;28;20037;-65
2023/12/14 03:56:12;;;;;;;121.30;34.20;;;8.20;99.90;;;;;;4971750;28;20326;-63
2023/12/14 03:58:38;;;;;;;112.78;32.15;;;8.10;99.90;;;;;;4972377;28;20035;-63
2023/12/14 04:01:04;;;;;;;92.82;31.58;;;8.10;99.90;;;;;;4970167;28;20043;-63
2023/12/14 04:03:29;;;;;;;104.72;33.67;;;8.10;99.90;;;;;;4972617;28;20035;-63
2023/12/14 04:05:55;;;;;;;99.53;33.60;;;8.00;99.90;;;;;;4973536;28;20490;-63
2023/12/14 04:08:20;;;;;;;93.85;32.67;;;8.00;99.90;;;;;;4971634;28;20493;-64
2023/12/14 04:10:46;;;;;;;103.88;32.10;;;8.00;99.90;;;;;;4972366;28;20070;-62
2023/12/14 04:13:11;;;;;;;92.00;33.35;;;7.90;99.90;;;;;;4972274;28;20121;-62
2023/12/14 04:15:37;;;;;;;94.35;32.35;;;7.90;99.90;;;;;;4971402;28;20021;-63
2023/12/14 04:18:02;;;;;;;96.65;32.38;;;7.90;99.90;;;;;;4971908;28;20023;-64
2023/12/14 04:20:28;;;;;;;105.40;35.95;;;7.80;99.90;;;;;;4972140;28;20041;-64
2023/12/14 04:22:53;;;;;;;117.40;37.65;;;7.80;99.90;;;;;;4969255;28;20431;-61
2023/12/14 04:25:19;;;;;;;115.32;36.70;;;7.80;99.90;;;;;;4972822;28;20030;-61
2023/12/14 04:27:44;;;;;;;105.63;35.28;;;7.80;99.90;;;;;;4971568;28;20109;-65
2023/12/14 04:30:11;;;;;;;114.18;36.47;;;7.70;99.90;;;;;;4971733;28;20066;-63
2023/12/14 04:32:37;;;;;;;115.72;37.65;;;7.70;99.90;;;;;;4970009;28;20058;-63
2023/12/14 04:35:04;;;;;;;113.63;37.40;;;7.70;99.90;;;;;;4969763;28;20093;-64
2023/12/14 04:37:30;;;;;;;130.52;42.65;;;7.80;99.90;;;;;;4972588;28;20030;-62
2023/12/14 04:39:57;;;;;;;139.30;41.50;;;7.70;99.90;;;;;;4971985;28;20027;-63
2023/12/14 04:42:22;;;;;;;129.80;42.85;;;7.70;99.90;;;;;;4970699;28;20114;-63
2023/12/14 04:44:48;;;;;;;122.22;42.25;;;7.70;99.90;;;;;;4969896;28;20032;-63
2023/12/14 04:47:13;;;;;;;129.82;43.97;;;7.70;99.90;;;;;;4970943;28;20035;-62
2023/12/14 04:49:39;;;;;;;150.35;49.38;;;7.70;99.90;;;;;;4970683;28;20082;-62
2023/12/14 04:52:05;;;;;;;157.63;47.03;;;7.70;99.90;;;;;;4972887;28;20030;-62
2023/12/14 04:54:31;;;;;;;161.77;49.65;;;7.60;99.90;;;;;;4968718;28;20545;-64
2023/12/14 04:56:56;;;;;;;165.52;51.70;;;7.60;99.90;;;;;;4971626;28;20059;-64
2023/12/14 04:59:22;;;;;;;168.13;49.95;;;7.60;99.90;;;;;;4971224;28;20018;-62
2023/12/14 05:01:47;;;;;;;153.38;49.83;;;7.60;99.90;;;;;;4968073;28;20038;-64
2023/12/14 05:04:13;;;;;;;167.75;50.83;;;7.60;99.90;;;;;;4972004;28;20034;-64
2023/12/14 05:06:39;;;;;;;180.93;52.13;;;7.60;99.90;;;;;;4971356;28;20044;-62
2023/12/14 05:09:05;;;;;;;182.70;54.75;;;7.60;99.90;;;;;;4972101;28;20030;-63
2023/12/14 05:11:31;;;;;;;166.32;49.20;;;7.50;99.90;;;;;;4971392;28;20082;-64
2023/12/14 05:13:57;;;;;;;166.65;49.90;;;7.50;99.90;;;;;;4970040;28;20030;-62
2023/12/14 05:16:26;;;;;;;170.05;50.50;;;7.50;99.90;;;;;;4970145;28;20034;-63
2023/12/14 05:18:53;;;;;;;178.90;49.17;;;7.50;99.90;;;;;;4971585;28;20453;-62
2023/12/14 05:21:18;;;;;;;182.38;51.70;;;7.50;99.90;;;;;;4968910;28;20019;-63
2023/12/14 05:23:44;;;;;;;173.82;51.90;;;7.40;99.90;;;;;;4971253;28;20050;-62
2023/12/14 05:26:10;;;;;;;175.05;50.25;;;7.40;99.90;;;;;;4969067;28;20072;-63
2023/12/14 05:28:35;;;;;;;166.90;49.67;;;7.40;99.90;;;;;;4966929;28;20579;-62
2023/12/14 05:31:01;;;;;;;166.35;49.38;;;7.40;99.90;;;;;;4967162;28;20532;-64
2023/12/14 05:33:28;;;;;;;163.77;46.00;;;7.40;99.90;;;;;;4969344;28;20068;-64
2023/12/14 05:35:53;;;;;;;135.50;45.40;;;7.40;99.90;;;;;;4970810;28;20473;-64
2023/12/14 05:38:19;;;;;;;159.60;46.10;;;7.40;99.90;;;;;;4970701;28;20023;-64
2023/12/14 05:40:45;;;;;;;152.13;45.83;;;7.30;99.90;;;;;;4969393;28;20035;-63
2023/12/14 05:43:11;;;;;;;140.27;44.47;;;7.30;99.90;;;;;;4965290;28;20053;-62
2023/12/14 05:45:36;;;;;;;138.00;44.80;;;7.30;99.90;;;;;;4965274;28;20367;-64
2023/12/14 05:48:05;;;;;;;133.70;45.20;;;7.30;99.90;;;;;;4971226;28;20039;-63
2023/12/14 05:50:30;;;;;;;132.90;41.90;;;7.30;99.90;;;;;;4965958;28;20035;-63
2023/12/14 05:52:56;;;;;;;119.15;40.70;;;7.30;99.90;;;;;;4970678;28;20670;-64
2023/12/14 05:55:21;;;;;;;127.38;41.97;;;7.20;99.90;;;;;;4973215;28;20030;-64
2023/12/14 05:57:50;;;;;;;120.75;42.63;;;7.30;99.90;;;;;;4964992;28;20498;-63
2023/12/14 06:00:17;;;;;;;124.43;40.75;;;7.30;99.90;;;;;;4966273;28;20031;-64
2023/12/14 06:02:42;;;;;;;124.65;39.17;;;7.20;99.90;;;;;;4968298;28;20401;-63
2023/12/14 06:05:08;;;;;;;121.80;42.13;;;7.30;99.90;;;;;;4969236;28;20042;-63
2023/12/14 06:07:34;;;;;;;124.20;38.92;;;7.30;99.90;;;;;;4968196;28;20026;-62
2023/12/14 06:10:01;;;;;;;112.97;39.38;;;7.20;99.90;;;;;;4966787;28;20030;-62
2023/12/14 06:12:26;;;;;;;112.30;36.53;;;7.20;99.90;;;;;;4966836;28;20409;-63
2023/12/14 06:14:52;;;;;;;116.10;40.17;;;7.20;99.90;;;;;;4962708;28;20035;-63
2023/12/14 06:17:18;;;;;;;116.07;40.22;;;7.20;99.90;;;;;;4968834;28;20486;-62
2023/12/14 06:19:43;;;;;;;112.25;37.13;;;7.20;99.90;;;;;;4969132;28;20500;-62
2023/12/14 06:22:09;;;;;;;110.65;38.13;;;7.10;99.90;;;;;;4969635;28;20050;-62
2023/12/14 06:24:34;;;;;;;120.07;37.58;;;7.10;99.90;;;;;;4968640;28;20513;-62
2023/12/14 06:27:00;;;;;;;128.20;38.22;;;7.10;99.90;;;;;;4970532;28;20149;-64
2023/12/14 06:29:25;;;;;;;113.60;38.67;;;7.10;99.90;;;;;;4969635;28;20038;-64
2023/12/14 06:31:51;;;;;;;117.50;38.30;;;7.10;99.90;;;;;;4968734;28;20074;-62
2023/12/14 06:34:17;;;;;;;114.82;37.80;;;7.10;99.90;;;;;;4967504;28;20132;-64
2023/12/14 06:36:43;;;;;;;104.72;37.40;;;7.10;99.90;;;;;;4968741;28;20035;-62
2023/12/14 06:39:10;;;;;;;115.65;37.75;;;7.10;99.90;;;;;;4967074;28;20020;-62
2023/12/14 06:41:36;;;;;;;119.80;38.28;;;7.10;99.90;;;;;;4967387;28;20026;-63
2023/12/14 06:44:01;;;;;;;141.63;39.33;;;7.10;99.90;;;;;;4959034;28;20035;-61
2023/12/14 06:46:27;;;;;;;122.72;38.53;;;7.10;99.90;;;;;;4966471;28;20182;-61
2023/12/14 06:48:53;;;;;;;121.15;37.35;;;7.10;99.90;;;;;;4970281;28;20117;-63
2023/12/14 06:51:19;;;;;;;138.55;39.60;;;7.10;99.90;;;;;;4968352;28;20166;-59
2023/12/14 06:53:45;;;;;;;143.15;38.75;;;7.00;99.90;;;;;;4969055;28;20117;-62
2023/12/14 06:56:11;;;;;;;131.85;39.25;;;7.00;99.90;;;;;;4968769;28;20367;-63
2023/12/14 06:58:39;;;;;;;146.55;38.70;;;7.00;99.90;;;;;;4968345;28;20029;-64
2023/12/14 07:01:05;;;;;;;127.78;39.25;;;7.00;99.90;;;;;;4970657;28;20023;-63
2023/12/14 07:03:31;;;;;;;134.48;37.42;;;7.00;99.90;;;;;;4969504;28;20499;-63
2023/12/14 07:05:58;;;;;;;137.40;38.80;;;7.00;99.90;;;;;;4971012;28;20046;-62
2023/12/14 07:08:24;;;;;;;119.68;36.75;;;7.00;99.90;;;;;;4968757;28;20027;-62
2023/12/14 07:10:49;;;;;;;129.85;35.72;;;7.00;99.90;;;;;;4972221;28;20023;-62
2023/12/14 07:13:15;;;;;;;131.32;36.70;;;7.00;99.90;;;;;;4973882;28;20346;-64
2023/12/14 07:15:40;;;;;;;125.57;34.85;;;7.00;99.90;;;;;;4971199;28;20416;-64
2023/12/14 07:18:06;;;;;;;118.20;33.92;;;6.90;99.90;;;;;;4973844;28;20102;-63
2023/12/14 07:20:31;;;;;;;116.80;35.17;;;7.00;99.90;;;;;;4976452;28;20053;-62
2023/12/14 07:22:57;;;;;;;110.43;32.58;;;6.90;99.90;;;;;;4974179;28;20515;-62
2023/12/14 07:25:22;;;;;;;113.97;32.13;;;6.90;99.90;;;;;;4971777;28;20054;-63
2023/12/14 07:27:48;;;;;;;128.25;33.00;;;6.90;99.90;;;;;;4973532;28;20035;-63
2023/12/14 07:30:14;;;;;;;127.32;33.75;;;6.90;99.90;;;;;;4973306;28;20105;-62
2023/12/14 07:32:39;;;;;;;140.00;35.08;;;6.80;99.90;;;;;;4972699;28;20058;-63
2023/12/14 07:35:06;;;;;;;124.13;32.78;;;6.80;99.90;;;;;;4974003;28;20070;-63
2023/12/14 07:37:32;;;;;;;127.45;35.13;;;6.80;99.90;;;;;;4973452;28;20058;-63
2023/12/14 07:40:00;;;;;;;131.50;34.50;;;6.80;99.90;;;;;;4971875;28;20027;-62
2023/12/14 07:42:26;;;;;;;132.27;33.40;;;6.80;99.90;;;;;;4972856;28;20101;-63
2023/12/14 07:44:51;;;;;;;136.07;36.63;;;6.70;99.90;;;;;;4971725;28;20564;-62
2023/12/14 07:47:17;;;;;;;135.18;35.45;;;6.70;99.90;;;;;;4970103;28;20445;-63
2023/12/14 07:49:43;;;;;;;132.00;35.40;;;6.70;99.90;;;;;;4970146;28;20038;-64
2023/12/14 07:52:09;;;;;;;138.10;36.40;;;6.70;99.90;;;;;;4973633;28;20397;-64
2023/12/14 07:54:35;;;;;;;123.43;32.65;;;6.70;99.90;;;;;;4971999;28;20061;-64
2023/12/14 07:57:01;;;;;;;117.80;32.95;;;6.70;99.90;;;;;;4973607;28;20482;-63
2023/12/14 07:59:26;;;;;;;123.80;33.20;;;6.70;99.90;;;;;;4970703;28;20058;-62
2023/12/14 08:01:52;;;;;;;116.18;31.00;;;6.70;99.90;;;;;;4972873;28;20496;-63
2023/12/14 08:04:17;;;;;;;108.50;30.58;;;6.70;99.90;;;;;;4973549;28;20018;-63
2023/12/14 08:06:43;;;;;;;113.57;29.92;;;6.70;99.90;;;;;;4972098;28;20141;-63
2023/12/14 08:09:08;;;;;;;106.53;27.60;;;6.60;99.90;;;;;;4970382;28;20046;-63
2023/12/14 08:11:34;;;;;;;106.40;26.85;;;6.60;99.90;;;;;;4972025;28;20038;-63
2023/12/14 08:14:00;;;;;;;87.38;25.08;;;6.60;99.90;;;;;;4971417;28;20034;-64
2023/12/14 08:16:25;;;;;;;78.68;22.73;;;6.60;99.90;;;;;;4973240;28;20528;-64
2023/12/14 08:18:51;;;;;;;81.07;22.23;;;6.60;99.90;;;;;;4965802;28;20031;-64
2023/12/14 08:21:18;;;;;;;75.38;22.90;;;6.60;99.90;;;;;;4973089;28;20089;-62
2023/12/14 08:23:43;;;;;;;100.97;26.50;;;6.60;99.90;;;;;;4973027;28;20034;-63
2023/12/14 08:26:11;;;;;;;81.65;22.30;;;6.60;99.90;;;;;;4971817;28;20486;-63
2023/12/14 08:28:37;;;;;;;79.63;22.60;;;6.60;99.90;;;;;;4971101;28;20023;-64
2023/12/14 08:31:04;;;;;;;79.63;22.75;;;6.70;99.90;;;;;;4972957;28;20038;-64
2023/12/14 08:33:29;;;;;;;70.78;21.65;;;6.70;99.90;;;;;;4972942;28;20059;-64
2023/12/14 08:35:55;;;;;;;69.70;21.00;;;6.60;99.90;;;;;;4973295;28;20059;-63
2023/12/14 08:38:21;;;;;;;66.30;20.48;;;6.60;99.90;;;;;;4967116;28;20023;-63
2023/12/14 08:40:46;;;;;;;74.85;21.25;;;6.60;99.90;;;;;;4972243;28;20110;-62
2023/12/14 08:43:12;;;;;;;71.70;20.67;;;6.70;99.90;;;;;;4966508;28;20034;-64
2023/12/14 08:45:38;;;;;;;58.78;18.70;;;6.60;99.90;;;;;;4970423;28;20393;-64
2023/12/14 08:48:04;;;;;;;66.32;20.48;;;6.60;99.90;;;;;;4971876;28;20473;-64
2023/12/14 08:50:29;;;;;;;64.03;21.20;;;6.70;99.90;;;;;;4971766;28;20120;-63
2023/12/14 08:52:55;;;;;;;65.47;18.42;;;6.70;99.90;;;;;;4972553;28;20030;-63
2023/12/14 08:55:21;;;;;;;67.72;21.95;;;6.70;99.90;;;;;;4972425;28;20027;-62
2023/12/14 08:57:47;;;;;;;70.63;22.75;;;6.70;99.90;;;;;;4970303;28;20512;-62
2023/12/14 09:00:13;;;;;;;75.78;22.25;;;6.70;99.90;;;;;;4971713;28;20027;-63
2023/12/14 09:02:39;;;;;;;68.18;22.08;;;6.60;99.90;;;;;;4970256;28;20022;-63
2023/12/14 09:05:05;;;;;;;72.22;22.23;;;6.60;99.90;;;;;;4971930;28;20485;-64
2023/12/14 09:07:31;;;;;;;76.20;22.80;;;6.50;99.90;;;;;;4970068;28;20031;-62
2023/12/14 09:09:56;;;;;;;71.45;22.80;;;6.50;99.90;;;;;;4971963;28;20026;-64
2023/12/14 09:12:22;;;;;;;76.20;24.20;;;6.50;99.90;;;;;;4971367;28;20031;-63
2023/12/14 09:14:48;;;;;;;72.47;22.70;;;6.50;99.90;;;;;;4971338;28;20023;-63
2023/12/14 09:17:13;;;;;;;80.88;24.95;;;6.40;99.90;;;;;;4970955;28;20400;-61
2023/12/14 09:19:39;;;;;;;76.10;25.17;;;6.40;99.90;;;;;;4968867;28;20175;-62
2023/12/14 09:22:05;;;;;;;87.32;27.25;;;6.40;99.90;;;;;;4969603;28;20026;-61
2023/12/14 09:24:30;;;;;;;81.28;25.27;;;6.40;99.90;;;;;;4970719;28;20030;-63
2023/12/14 09:26:56;;;;;;;92.50;27.25;;;6.40;99.90;;;;;;4972056;28;20034;-63
2023/12/14 09:29:21;;;;;;;84.00;24.20;;;6.40;99.90;;;;;;4964241;28;20066;-60
2023/12/14 09:31:47;;;;;;;90.78;27.58;;;6.40;99.90;;;;;;4967916;28;20037;-63
2023/12/14 09:34:13;;;;;;;88.80;27.35;;;6.30;99.90;;;;;;4970736;28;20041;-63
2023/12/14 09:36:39;;;;;;;90.40;28.73;;;6.30;99.90;;;;;;4972158;28;20043;-63
2023/12/14 09:39:05;;;;;;;87.53;25.75;;;6.30;99.90;;;;;;4964163;28;20023;-63
2023/12/14 09:41:31;;;;;;;92.78;26.40;;;6.30;99.90;;;;;;4967777;28;20039;-64
2023/12/14 09:43:56;;;;;;;75.05;25.05;;;6.30;99.90;;;;;;4967843;28;20119;-63
2023/12/14 09:46:24;;;;;;;81.22;26.80;;;6.30;99.90;;;;;;4969134;28;20054;-63
2023/12/14 09:48:50;;;;;;;88.60;28.67;;;6.40;99.90;;;;;;4965392;28;20059;-63
2023/12/14 09:51:16;;;;;;;83.25;26.40;;;6.30;99.90;;;;;;4966252;28;20027;-62
2023/12/14 09:53:42;;;;;;;88.47;25.80;;;6.30;99.90;;;;;;4963939;28;20038;-62
2023/12/14 09:56:08;;;;;;;81.55;25.20;;;6.40;99.90;;;;;;4967653;28;20118;-62
2023/12/14 09:58:34;;;;;;;79.90;26.55;;;6.40;99.90;;;;;;4965114;28;20068;-63
2023/12/14 10:01:04;;;;;;;75.70;25.70;;;6.30;99.90;;;;;;4968882;28;20047;-62
2023/12/14 10:03:31;;;;;;;80.75;25.38;;;6.30;99.90;;;;;;4967958;28;20101;-61
2023/12/14 10:05:58;;;;;;;72.95;24.48;;;6.30;99.90;;;;;;4970166;28;20029;-63
2023/12/14 10:08:24;;;;;;;62.85;22.92;;;6.30;99.90;;;;;;4965302;28;20106;-64
2023/12/14 10:10:52;;;;;;;72.13;23.23;;;6.30;99.90;;;;;;4968127;28;20055;-63
2023/12/14 10:13:19;;;;;;;73.25;23.38;;;6.30;99.90;;;;;;4964062;28;20078;-62
2023/12/14 10:15:46;;;;;;;69.80;22.80;;;6.30;99.90;;;;;;4970811;28;20058;-64
2023/12/14 10:18:23;;;;;;;71.22;23.05;;;6.30;99.90;;;;;;4965731;28;20085;-63
2023/12/14 10:20:48;;;;;;;75.18;24.27;;;6.40;99.90;;;;;;4969867;28;20023;-63
2023/12/14 10:23:14;;;;;;;66.63;22.65;;;6.40;99.90;;;;;;4966966;28;20115;-59
2023/12/14 10:25:39;;;;;;;68.07;23.75;;;6.50;99.90;;;;;;4970690;28;20473;-63
2023/12/14 10:28:05;;;;;;;74.43;25.70;;;6.40;99.90;;;;;;4969636;28;20030;-62
2023/12/14 10:30:31;;;;;;;65.70;24.15;;;6.30;99.90;;;;;;4962916;28;20062;-60
2023/12/14 10:32:57;;;;;;;65.10;23.30;;;6.40;99.90;;;;;;4966927;28;20397;-62
2023/12/14 10:35:23;;;;;;;67.28;23.45;;;6.40;99.90;;;;;;4971081;28;20023;-63
2023/12/14 10:37:51;;;;;;;60.08;22.80;;;6.30;99.90;;;;;;4968920;28;20453;-62
2023/12/14 10:40:17;;;;;;;68.55;23.52;;;6.30;99.90;;;;;;4968878;28;20434;-61
2023/12/14 10:42:44;;;;;;;69.30;24.95;;;6.30;99.90;;;;;;4969871;28;20093;-63
2023/12/14 10:45:16;;;;;;;69.88;24.45;;;6.30;99.90;;;;;;4972651;28;20238;-62
2023/12/14 10:47:45;;;;;;;73.18;26.98;;;6.30;99.90;;;;;;4971509;28;20030;-63
2023/12/14 10:50:11;;;;;;;75.95;27.15;;;6.30;99.90;;;;;;4973749;28;20022;-63
2023/12/14 10:52:39;;;;;;;81.32;28.48;;;6.20;99.90;;;;;;4974390;28;20497;-61
2023/12/14 10:55:07;;;;;;;84.75;27.52;;;6.20;99.90;;;;;;4970208;28;20030;-63
2023/12/14 10:57:34;;;;;;;87.55;29.15;;;6.20;99.90;;;;;;4970585;28;20489;-62
2023/12/14 11:00:01;;;;;;;88.63;28.30;;;6.20;99.90;;;;;;4965270;28;20023;-63
2023/12/14 11:02:26;;;;;;;84.40;27.20;;;6.20;99.90;;;;;;4970343;28;20026;-63
2023/12/14 11:05:05;;;;;;;73.88;26.63;;;6.20;99.90;;;;;;4971219;28;20045;-63
2023/12/14 11:07:47;;;;;;;78.65;25.25;;;6.20;99.90;;;;;;4970390;28;20051;-63
2023/12/14 11:10:13;;;;;;;76.80;26.52;;;6.30;99.90;;;;;;4970555;28;20038;-63
2023/12/14 11:12:51;;;;;;;76.85;27.40;;;6.30;99.90;;;;;;4971614;28;20173;-63
2023/12/14 11:15:19;;;;;;;74.70;26.52;;;6.40;99.90;;;;;;4968603;28;20027;-63
2023/12/14 11:18:10;;;;;;;78.20;25.02;;;6.50;99.90;;;;;;4973021;28;20037;-63
2023/12/14 11:20:44;;;;;;;68.72;25.85;;;6.50;99.90;;;;;;4973057;28;20023;-63
2023/12/14 11:23:13;;;;;;;65.60;24.60;;;6.50;99.90;;;;;;4963322;28;20023;-62
2023/12/14 11:25:41;;;;;;;68.93;24.27;;;6.40;99.90;;;;;;4970614;28;20103;-63
2023/12/14 11:28:10;;;;;;;72.35;26.52;;;6.40;99.90;;;;;;4967396;28;20031;-63
2023/12/14 11:30:36;;;;;;;64.97;23.77;;;6.40;99.90;;;;;;4968217;28;20039;-63
2023/12/14 11:33:03;;;;;;;65.22;24.52;;;6.40;99.90;;;;;;4972248;28;20034;-62
2023/12/14 11:35:28;;;;;;;67.35;25.27;;;6.40;99.90;;;;;;4973887;28;20056;-62
2023/12/14 11:37:57;;;;;;;64.32;24.20;;;6.40;99.90;;;;;;4973821;28;20030;-63
2023/12/14 11:40:23;;;;;;;64.40;23.92;;;6.30;99.90;;;;;;4973546;28;20015;-63
2023/12/14 11:43:08;;;;;;;66.55;25.15;;;6.30;99.90;;;;;;4970659;28;20025;-63
2023/12/14 11:45:37;;;;;;;71.35;26.45;;;6.30;99.90;;;;;;4969729;28;20051;-62
2023/12/14 11:48:05;;;;;;;71.50;26.38;;;6.30;99.90;;;;;;4974272;28;20026;-62
2023/12/14 11:50:34;;;;;;;65.18;24.05;;;6.30;99.90;;;;;;4973726;28;20113;-62
2023/12/14 11:53:03;;;;;;;64.50;25.67;;;6.30;99.90;;;;;;4973148;28;20525;-63
2023/12/14 11:55:28;;;;;;;64.68;25.63;;;6.30;99.90;;;;;;4972989;28;20045;-64
2023/12/14 11:57:54;;;;;;;66.78;25.33;;;6.20;99.90;;;;;;4971437;28;20027;-63
2023/12/14 12:00:25;;;;;;;60.38;23.63;;;6.30;99.90;;;;;;4972587;28;20031;-61
2023/12/14 12:02:51;;;;;;;58.40;22.88;;;6.30;99.90;;;;;;4967723;28;20027;-62
2023/12/14 12:05:18;;;;;;;63.33;23.80;;;6.20;99.90;;;;;;4974390;28;20039;-62
2023/12/14 12:07:45;;;;;;;59.10;23.23;;;6.20;99.90;;;;;;4973128;28;20038;-62
2023/12/14 12:10:11;;;;;;;58.50;23.45;;;6.20;99.90;;;;;;4972745;28;20027;-61
2023/12/14 12:12:37;;;;;;;58.15;22.02;;;6.20;99.90;;;;;;4967233;28;20031;-60
2023/12/14 12:15:03;;;;;;;56.50;22.48;;;6.20;99.90;;;;;;4973932;28;20033;-63
2023/12/14 12:17:29;;;;;;;52.42;22.25;;;6.20;99.90;;;;;;4973442;28;20090;-62
2023/12/14 12:19:55;;;;;;;61.22;22.45;;;6.20;99.90;;;;;;4970887;28;20019;-63
2023/12/14 12:22:20;;;;;;;60.08;23.17;;;6.20;99.90;;;;;;4970499;28;20389;-63
2023/12/14 12:24:46;;;;;;;58.03;23.17;;;6.20;99.90;;;;;;4967658;28;20529;-64